Time,TemperatureF,DewpointF,PressureIn,WindDirection,WindDirectionDegrees,WindSpeedMPH,WindSpeedGustMPH,Humidity,HourlyPrecipIn,Conditions,Clouds,dailyrainin,SoftwareType,DateUTC
2013-05-17 00:02:00,63.0,31.0,-100.00,WSW,253,13.0,24.0,30,0.00,,,-99.99,,2013-05-17 00:02:00,
2013-05-17 00:13:00,63.0,30.0,-100.00,WSW,258,15.0,24.0,29,0.00,,,-99.99,,2013-05-17 00:13:00,
2013-05-17 00:22:00,63.0,31.0,-100.00,West,265,17.0,23.0,30,0.00,,,-99.99,,2013-05-17 00:22:00,
2013-05-17 00:33:00,62.0,31.0,-100.00,West,261,13.0,20.0,31,0.00,,,-99.99,,2013-05-17 00:33:00,
2013-05-17 00:43:00,62.0,32.0,-100.00,WSW,257,11.0,16.0,32,0.00,,,-99.99,,2013-05-17 00:43:00,
2013-05-17 00:52:00,62.0,32.0,-100.00,West,265,6.0,9.0,32,0.00,,,-99.99,,2013-05-17 00:52:00,
2013-05-17 01:03:00,62.0,32.0,-100.00,WSW,256,5.0,9.0,32,0.00,,,-99.99,,2013-05-17 01:03:00,
2013-05-17 01:12:00,63.0,32.0,-100.00,WSW,244,4.0,9.0,32,0.00,,,-99.99,,2013-05-17 01:12:00,
2013-05-17 01:23:00,62.0,32.0,-100.00,South,174,11.0,19.0,32,0.00,,,-99.99,,2013-05-17 01:23:00,
2013-05-17 01:32:00,60.0,34.0,-100.00,South,171,13.0,19.0,37,0.00,,,-99.99,,2013-05-17 01:32:00,
2013-05-17 01:43:00,60.0,33.0,-100.00,South,178,9.0,15.0,37,0.00,,,-99.99,,2013-05-17 01:43:00,
2013-05-17 01:52:00,59.0,33.0,-100.00,South,174,6.0,11.0,37,0.00,,,-99.99,,2013-05-17 01:52:00,
2013-05-17 02:02:00,58.0,32.0,-100.00,South,174,5.0,10.0,37,0.00,,,-99.99,,2013-05-17 02:02:00,
2013-05-17 02:11:00,58.0,32.0,-100.00,SSW,208,9.0,18.0,37,0.00,,,-99.99,,2013-05-17 02:11:00,
2013-05-17 02:21:00,58.0,32.0,-100.00,SSW,209,11.0,19.0,37,0.00,,,-99.99,,2013-05-17 02:21:00,
2013-05-17 02:32:00,57.0,32.0,-100.00,SW,220,9.0,18.0,39,0.00,,,-99.99,,2013-05-17 02:32:00,
2013-05-17 02:42:00,56.0,33.0,-100.00,SW,215,6.0,11.0,41,0.00,,,-99.99,,2013-05-17 02:42:00,
2013-05-17 02:53:00,55.0,33.0,-100.00,SSW,208,6.0,10.0,42,0.00,,,-99.99,,2013-05-17 02:53:00,
2013-05-17 03:02:00,55.0,33.0,-100.00,SW,227,7.0,11.0,43,0.00,,,-99.99,,2013-05-17 03:02:00,
2013-05-17 03:11:00,54.0,33.0,-100.00,WSW,239,7.0,12.0,45,0.00,,,-99.99,,2013-05-17 03:11:00,
2013-05-17 03:22:00,54.0,34.0,-100.00,WSW,254,7.0,12.0,45,0.00,,,-99.99,,2013-05-17 03:22:00,
2013-05-17 03:34:00,54.0,35.0,-100.00,WSW,256,7.0,13.0,47,0.00,,,-99.99,,2013-05-17 03:34:00,
2013-05-17 03:43:00,54.0,35.0,-100.00,WSW,253,8.0,12.0,48,0.00,,,-99.99,,2013-05-17 03:43:00,
2013-05-17 03:53:00,54.0,36.0,-100.00,WSW,258,9.0,12.0,50,0.00,,,-99.99,,2013-05-17 03:53:00,
2013-05-17 04:02:00,52.0,36.0,-100.00,West,267,10.0,12.0,55,0.00,,,-99.99,,2013-05-17 04:02:00,
2013-05-17 04:13:00,51.0,36.0,-100.00,West,271,9.0,12.0,57,0.00,,,-99.99,,2013-05-17 04:13:00,
2013-05-17 04:23:00,52.0,36.0,-100.00,SW,236,6.0,12.0,53,0.00,,,-99.99,,2013-05-17 04:23:00,
2013-05-17 04:33:00,51.0,36.0,-100.00,SW,226,7.0,13.0,55,0.00,,,-99.99,,2013-05-17 04:33:00,
2013-05-17 04:43:00,51.0,36.0,-100.00,SSW,205,4.0,11.0,56,0.00,,,-99.99,,2013-05-17 04:43:00,
2013-05-17 04:53:00,52.0,36.0,-100.00,SE,134,4.0,9.0,55,0.00,,,-99.99,,2013-05-17 04:53:00,
2013-05-17 05:03:00,51.0,36.0,-100.00,SE,131,3.0,7.0,55,0.00,,,-99.99,,2013-05-17 05:03:00,
2013-05-17 05:14:00,52.0,35.0,-100.00,SSE,154,3.0,11.0,53,0.00,,,-99.99,,2013-05-17 05:14:00,
2013-05-17 05:22:00,52.0,35.0,-100.00,SSW,195,4.0,9.0,53,0.00,,,-99.99,,2013-05-17 05:22:00,
2013-05-17 05:32:00,51.0,35.0,-100.00,South,169,1.0,6.0,54,0.00,,,-99.99,,2013-05-17 05:32:00,
2013-05-17 05:42:00,51.0,35.0,-100.00,SSE,164,1.0,4.0,54,0.00,,,-99.99,,2013-05-17 05:42:00,
2013-05-17 05:52:00,53.0,35.0,-100.00,South,174,7.0,11.0,50,0.00,,,-99.99,,2013-05-17 05:52:00,
2013-05-17 06:02:00,56.0,33.0,-100.00,SSE,164,10.0,15.0,41,0.00,,,-99.99,,2013-05-17 06:02:00,
2013-05-17 06:11:00,57.0,31.0,-100.00,SSE,150,12.0,18.0,37,0.00,,,-99.99,,2013-05-17 06:11:00,
2013-05-17 06:21:00,57.0,31.0,-100.00,SSE,168,14.0,21.0,38,0.00,,,-99.99,,2013-05-17 06:21:00,
2013-05-17 06:32:00,56.0,32.0,-100.00,SSE,168,12.0,15.0,39,0.00,,,-99.99,,2013-05-17 06:32:00,
2013-05-17 06:42:00,55.0,33.0,-100.00,SSE,151,12.0,16.0,44,0.00,,,-99.99,,2013-05-17 06:42:00,
2013-05-17 06:51:00,54.0,33.0,-100.00,SSE,154,11.0,14.0,45,0.00,,,-99.99,,2013-05-17 06:51:00,
2013-05-17 07:02:00,56.0,33.0,-100.00,SSE,161,11.0,14.0,42,0.00,,,-99.99,,2013-05-17 07:02:00,
2013-05-17 07:11:00,56.0,33.0,-100.00,SSE,165,12.0,14.0,41,0.00,,,-99.99,,2013-05-17 07:11:00,
2013-05-17 07:21:00,53.0,35.0,-100.00,SE,134,10.0,13.0,50,0.00,,,-99.99,,2013-05-17 07:21:00,
2013-05-17 07:32:00,50.0,36.0,-100.00,ESE,114,9.0,13.0,58,0.00,,,-99.99,,2013-05-17 07:32:00,
2013-05-17 07:43:00,50.0,36.0,-100.00,ESE,114,9.0,13.0,58,0.00,,,-99.99,,2013-05-17 07:43:00,
2013-05-17 07:53:00,51.0,36.0,-100.00,SE,124,10.0,13.0,56,0.00,,,-99.99,,2013-05-17 07:53:00,
2013-05-17 08:02:00,51.0,35.0,-100.00,SE,137,11.0,13.0,54,0.00,,,-99.99,,2013-05-17 08:02:00,
2013-05-17 08:12:00,50.0,34.0,-100.00,SE,130,9.0,14.0,54,0.00,,,-99.99,,2013-05-17 08:12:00,
2013-05-17 08:22:00,52.0,34.0,-100.00,SE,143,9.0,14.0,50,0.00,,,-99.99,,2013-05-17 08:22:00,
2013-05-17 08:33:00,53.0,33.0,-100.00,SSE,154,13.0,16.0,47,0.00,,,-99.99,,2013-05-17 08:33:00,
2013-05-17 08:42:00,53.0,33.0,-100.00,SSE,154,13.0,16.0,46,0.00,,,-99.99,,2013-05-17 08:42:00,
2013-05-17 08:51:00,53.0,33.0,-100.00,SSE,148,14.0,18.0,46,0.00,,,-99.99,,2013-05-17 08:51:00,
2013-05-17 09:02:00,53.0,32.0,-100.00,SSE,148,16.0,18.0,46,0.00,,,-99.99,,2013-05-17 09:02:00,
2013-05-17 09:12:00,53.0,32.0,-100.00,SSE,147,16.0,18.0,46,0.00,,,-99.99,,2013-05-17 09:12:00,
2013-05-17 09:22:00,53.0,33.0,-100.00,SSE,148,16.0,18.0,46,0.00,,,-99.99,,2013-05-17 09:22:00,
2013-05-17 09:33:00,53.0,33.0,-100.00,SSE,148,16.0,18.0,47,0.00,,,-99.99,,2013-05-17 09:33:00,
2013-05-17 09:42:00,53.0,33.0,-100.00,SSE,150,16.0,18.0,48,0.00,,,-99.99,,2013-05-17 09:42:00,
2013-05-17 09:53:00,53.0,34.0,-100.00,SSE,148,16.0,19.0,48,0.00,,,-99.99,,2013-05-17 09:53:00,
2013-05-17 10:03:00,53.0,34.0,-100.00,SSE,150,15.0,18.0,48,0.00,,,-99.99,,2013-05-17 10:03:00,
2013-05-17 10:12:00,52.0,34.0,-100.00,SSE,157,12.0,15.0,49,0.00,,,-99.99,,2013-05-17 10:12:00,
2013-05-17 10:23:00,53.0,34.0,-100.00,SSE,157,14.0,16.0,48,0.00,,,-99.99,,2013-05-17 10:23:00,
2013-05-17 10:33:00,53.0,34.0,-100.00,SSE,151,13.0,15.0,48,0.00,,,-99.99,,2013-05-17 10:33:00,
2013-05-17 10:42:00,53.0,34.0,-100.00,SSE,150,12.0,14.0,48,0.00,,,-99.99,,2013-05-17 10:42:00,
2013-05-17 10:53:00,53.0,33.0,-100.00,SE,145,14.0,16.0,47,0.00,,,-99.99,,2013-05-17 10:53:00,
2013-05-17 11:02:00,53.0,33.0,-100.00,SSE,152,15.0,17.0,47,0.00,,,-99.99,,2013-05-17 11:02:00,
2013-05-17 11:12:00,52.0,33.0,-100.00,SSE,154,16.0,17.0,47,0.00,,,-99.99,,2013-05-17 11:12:00,
2013-05-17 11:22:00,52.0,32.0,-100.00,SSE,154,16.0,17.0,46,0.00,,,-99.99,,2013-05-17 11:22:00,
2013-05-17 11:34:00,53.0,32.0,-100.00,SSE,151,15.0,18.0,46,0.00,,,-99.99,,2013-05-17 11:34:00,
2013-05-17 11:42:00,52.0,32.0,-100.00,SSE,152,15.0,17.0,46,0.00,,,-99.99,,2013-05-17 11:42:00,
2013-05-17 11:52:00,51.0,31.0,-100.00,SSE,155,14.0,17.0,46,0.00,,,-99.99,,2013-05-17 11:52:00,
2013-05-17 12:03:00,51.0,31.0,-100.00,SSE,155,14.0,16.0,47,0.00,,,-99.99,,2013-05-17 12:03:00,
2013-05-17 12:12:00,51.0,31.0,-100.00,SSE,154,14.0,17.0,45,0.00,,,-99.99,,2013-05-17 12:12:00,
2013-05-17 12:23:00,52.0,31.0,-100.00,SSE,155,14.0,16.0,44,0.00,,,-99.99,,2013-05-17 12:23:00,
2013-05-17 12:32:00,53.0,30.0,-100.00,SSE,154,14.0,16.0,41,0.00,,,-99.99,,2013-05-17 12:32:00,
2013-05-17 12:43:00,54.0,31.0,-100.00,SSE,152,14.0,17.0,41,0.00,,,-99.99,,2013-05-17 12:43:00,
2013-05-17 12:53:00,54.0,31.0,-100.00,SSE,152,13.0,16.0,41,0.00,,,-99.99,,2013-05-17 12:53:00,
2013-05-17 13:03:00,55.0,31.0,-100.00,SSE,152,11.0,13.0,39,0.00,,,-99.99,,2013-05-17 13:03:00,
2013-05-17 13:12:00,56.0,31.0,-100.00,SSE,152,11.0,14.0,39,0.00,,,-99.99,,2013-05-17 13:12:00,
2013-05-17 13:23:00,56.0,31.0,-100.00,SSE,151,11.0,14.0,39,0.00,,,-99.99,,2013-05-17 13:23:00,
2013-05-17 13:33:00,56.0,32.0,-100.00,SSE,152,11.0,14.0,39,0.00,,,-99.99,,2013-05-17 13:33:00,
2013-05-17 13:42:00,59.0,26.0,-100.00,SSE,160,11.0,16.0,28,0.00,,,-99.99,,2013-05-17 13:42:00,
2013-05-17 13:52:00,57.0,31.0,-100.00,SSE,157,12.0,16.0,38,0.00,,,-99.99,,2013-05-17 13:52:00,
2013-05-17 14:02:00,57.0,32.0,-100.00,SSE,150,14.0,17.0,38,0.00,,,-99.99,,2013-05-17 14:02:00,
2013-05-17 14:13:00,57.0,31.0,-100.00,SSE,148,15.0,21.0,37,0.00,,,-99.99,,2013-05-17 14:13:00,
2013-05-17 14:22:00,57.0,29.0,-100.00,SSE,152,16.0,21.0,35,0.00,,,-99.99,,2013-05-17 14:22:00,
2013-05-17 14:34:00,57.0,30.0,-100.00,SSE,154,14.0,17.0,36,0.00,,,-99.99,,2013-05-17 14:34:00,
2013-05-17 14:43:00,58.0,30.0,-100.00,SSE,152,16.0,21.0,34,0.00,,,-99.99,,2013-05-17 14:43:00,
2013-05-17 14:53:00,58.0,28.0,-100.00,SSE,154,15.0,19.0,32,0.00,,,-99.99,,2013-05-17 14:53:00,
2013-05-17 15:03:00,58.0,29.0,-100.00,SSE,154,16.0,22.0,33,0.00,,,-99.99,,2013-05-17 15:03:00,
2013-05-17 15:14:00,59.0,30.0,-100.00,SSE,151,16.0,22.0,33,0.00,,,-99.99,,2013-05-17 15:14:00,
2013-05-17 15:25:00,61.0,28.0,-100.00,SE,144,16.0,21.0,29,0.00,,,-99.99,,2013-05-17 15:25:00,
2013-05-17 15:37:00,62.0,24.0,-100.00,SSE,167,15.0,22.0,23,0.00,,,-99.99,,2013-05-17 15:37:00,
2013-05-17 15:47:00,63.0,25.0,-100.00,South,174,15.0,22.0,24,0.00,,,-99.99,,2013-05-17 15:47:00,
2013-05-17 15:56:00,63.0,25.0,-100.00,South,175,14.0,21.0,23,0.00,,,-99.99,,2013-05-17 15:56:00,
2013-05-17 16:07:00,63.0,24.0,-100.00,South,176,12.0,21.0,22,0.00,,,-99.99,,2013-05-17 16:07:00,
2013-05-17 16:13:00,65.0,24.0,-100.00,SSE,168,12.0,18.0,21,0.00,,,-99.99,,2013-05-17 16:13:00,
2013-05-17 16:26:00,64.0,24.0,-100.00,SSE,161,15.0,24.0,21,0.00,,,-99.99,,2013-05-17 16:26:00,
2013-05-17 16:37:00,66.0,25.0,-100.00,SSE,161,13.0,20.0,21,0.00,,,-99.99,,2013-05-17 16:37:00,
2013-05-17 16:49:00,67.0,25.0,-100.00,South,186,10.0,18.0,20,0.00,,,-99.99,,2013-05-17 16:49:00,
2013-05-17 16:56:00,68.0,25.0,-100.00,SW,216,12.0,25.0,20,0.00,,,-99.99,,2013-05-17 16:56:00,
2013-05-17 17:08:00,68.0,24.0,-100.00,SSW,208,10.0,21.0,19,0.00,,,-99.99,,2013-05-17 17:08:00,
2013-05-17 17:18:00,67.0,24.0,-100.00,SSW,212,10.0,19.0,19,0.00,,,-99.99,,2013-05-17 17:18:00,
2013-05-17 17:30:00,68.0,25.0,-100.00,South,189,11.0,19.0,19,0.00,,,-99.99,,2013-05-17 17:30:00,
2013-05-17 17:40:00,69.0,-99.9,-100.00,SW,220,12.0,21.0,19,0.00,,,-99.99,,2013-05-17 17:40:00,
2013-05-17 17:49:00,68.0,25.0,-100.00,SW,229,12.0,26.0,20,0.00,,,-99.99,,2013-05-17 17:49:00,
2013-05-17 18:00:00,68.0,24.0,-100.00,SW,232,7.0,14.0,19,0.00,,,-99.99,,2013-05-17 18:00:00,
2013-05-17 18:09:00,68.0,24.0,-100.00,SW,217,6.0,12.0,18,0.00,,,-99.99,,2013-05-17 18:09:00,
2013-05-17 18:20:00,69.0,26.0,-100.00,WSW,247,4.0,12.0,19,0.00,,,-99.99,,2013-05-17 18:20:00,
2013-05-17 18:30:00,68.0,28.0,-100.00,South,171,9.0,22.0,22,0.00,,,-99.99,,2013-05-17 18:30:00,
2013-05-17 18:40:00,69.0,-99.9,-100.00,SSW,195,7.0,13.0,18,0.00,,,-99.99,,2013-05-17 18:40:00,
2013-05-17 18:50:00,-999.0,-99.9,-100.00,SW,234,6.0,17.0,19,0.00,,,-99.99,,2013-05-17 18:50:00,
2013-05-17 19:00:00,70.0,22.0,-100.00,SW,223,9.0,17.0,16,0.00,,,-99.99,,2013-05-17 19:00:00,
2013-05-17 19:10:00,69.0,24.0,-100.00,SSW,195,9.0,19.0,18,0.00,,,-99.99,,2013-05-17 19:10:00,
2013-05-17 19:20:00,68.0,18.0,-100.00,South,169,12.0,21.0,15,0.00,,,-99.99,,2013-05-17 19:20:00,
2013-05-17 19:30:00,69.0,19.0,-100.00,SSE,154,12.0,21.0,14,0.00,,,-99.99,,2013-05-17 19:30:00,
2013-05-17 19:40:00,69.0,18.0,-100.00,SSE,162,13.0,20.0,14,0.00,,,-99.99,,2013-05-17 19:40:00,
2013-05-17 19:50:00,69.0,21.0,-100.00,South,171,14.0,20.0,16,0.00,,,-99.99,,2013-05-17 19:50:00,
2013-05-17 20:00:00,69.0,-99.9,-100.00,SSE,161,15.0,24.0,15,0.00,,,-99.99,,2013-05-17 20:00:00,
2013-05-17 20:09:00,69.0,20.0,-100.00,South,175,11.0,19.0,15,0.00,,,-99.99,,2013-05-17 20:09:00,
2013-05-17 20:20:00,70.0,20.0,-100.00,South,174,11.0,21.0,15,0.00,,,-99.99,,2013-05-17 20:20:00,
2013-05-17 20:30:00,68.0,18.0,-100.00,South,172,13.0,19.0,15,0.00,,,-99.99,,2013-05-17 20:30:00,
2013-05-17 20:40:00,69.0,18.0,-100.00,South,188,13.0,22.0,14,0.00,,,-99.99,,2013-05-17 20:40:00,
2013-05-17 20:49:00,69.0,18.0,-100.00,South,185,10.0,21.0,14,0.00,,,-99.99,,2013-05-17 20:49:00,
2013-05-17 20:58:00,68.0,18.0,-100.00,SSE,162,11.0,20.0,15,0.00,,,-99.99,,2013-05-17 20:58:00,
2013-05-17 21:07:00,69.0,19.0,-100.00,South,176,9.0,19.0,15,0.00,,,-99.99,,2013-05-17 21:07:00,
2013-05-17 21:16:00,70.0,20.0,-100.00,SW,229,10.0,17.0,15,0.00,,,-99.99,,2013-05-17 21:16:00,
2013-05-17 21:26:00,69.0,20.0,-100.00,South,181,10.0,17.0,15,0.00,,,-99.99,,2013-05-17 21:26:00,
2013-05-17 21:39:00,70.0,19.0,-100.00,SSW,203,12.0,21.0,14,0.00,,,-99.99,,2013-05-17 21:39:00,
2013-05-17 21:49:00,69.0,19.0,-100.00,SW,232,11.0,18.0,14,0.00,,,-99.99,,2013-05-17 21:49:00,
2013-05-17 21:57:00,69.0,18.0,-100.00,SSW,196,9.0,18.0,14,0.00,,,-99.99,,2013-05-17 21:57:00,
2013-05-17 22:07:00,69.0,20.0,-100.00,SSW,193,10.0,18.0,15,0.00,,,-99.99,,2013-05-17 22:07:00,
2013-05-17 22:17:00,69.0,19.0,-100.00,SSW,206,9.0,18.0,15,0.00,,,-99.99,,2013-05-17 22:17:00,
2013-05-17 22:28:00,69.0,19.0,-100.00,SW,227,7.0,16.0,15,0.00,,,-99.99,,2013-05-17 22:28:00,
2013-05-17 22:38:00,68.0,18.0,-100.00,SSW,213,11.0,21.0,14,0.00,,,-99.99,,2013-05-17 22:38:00,
2013-05-17 22:47:00,68.0,18.0,-100.00,SSW,192,9.0,19.0,15,0.00,,,-99.99,,2013-05-17 22:47:00,
2013-05-17 22:54:00,69.0,20.0,-100.00,SSW,192,9.0,18.0,15,0.00,,,-99.99,,2013-05-17 22:54:00,
2013-05-17 23:04:00,68.0,21.0,-100.00,SSW,205,10.0,21.0,16,0.00,,,-99.99,,2013-05-17 23:04:00,
2013-05-17 23:13:00,68.0,21.0,-100.00,SSW,209,10.0,21.0,17,0.00,,,-99.99,,2013-05-17 23:13:00,
2013-05-17 23:23:00,68.0,22.0,-100.00,SW,215,9.0,16.0,17,0.00,,,-99.99,,2013-05-17 23:23:00,
2013-05-17 23:37:00,68.0,18.0,-100.00,South,184,7.0,14.0,15,0.00,,,-99.99,,2013-05-17 23:37:00,
2013-05-17 23:47:00,67.0,22.0,-100.00,SSW,200,9.0,19.0,18,0.00,,,-99.99,,2013-05-17 23:47:00,
2013-05-17 23:54:00,67.0,22.0,-100.00,SW,216,10.0,19.0,17,0.00,,,-99.99,,2013-05-17 23:54:00,